sensor_id;sensor_type;location;lat;lon;timestamp;pressure;altitude;pressure_sealevel;temperature;humidity
65131;BME280;51709;54.912;8.316;2022-10-22T00:00:21;100770.47;;;13.26;85.23
65131;BME280;51709;54.912;8.316;2022-10-22T00:05:41;100777.53;;;13.21;85.45
65131;BME280;51709;54.912;8.316;2022-10-22T00:11:20;100782.03;;;13.15;85.60
65131;BME280;51709;54.912;8.316;2022-10-22T00:16:41;100776.97;;;13.12;85.69
65131;BME280;51709;54.912;8.316;2022-10-22T00:22:01;100781.41;;;13.06;85.63
65131;BME280;51709;54.912;8.316;2022-10-22T00:27:25;100779.09;;;12.99;85.84
65131;BME280;51709;54.912;8.316;2022-10-22T00:32:45;100792.22;;;12.91;86.09
65131;BME280;51709;54.912;8.316;2022-10-22T00:38:06;100795.84;;;12.85;86.09
65131;BME280;51709;54.912;8.316;2022-10-22T00:43:27;100794.56;;;12.70;86.50
65131;BME280;51709;54.912;8.316;2022-10-22T00:48:48;100786.28;;;12.60;86.71
65131;BME280;51709;54.912;8.316;2022-10-22T00:54:09;100791.63;;;12.54;86.79
65131;BME280;51709;54.912;8.316;2022-10-22T00:59:30;100787.63;;;12.44;86.92
65131;BME280;51709;54.912;8.316;2022-10-22T01:04:51;100792.22;;;12.34;86.95
65131;BME280;51709;54.912;8.316;2022-10-22T01:15:51;100786.63;;;12.20;87.11
65131;BME280;51709;54.912;8.316;2022-10-22T01:21:22;100777.38;;;12.12;87.21
65131;BME280;51709;54.912;8.316;2022-10-22T01:27:06;100766.34;;;12.09;87.35
65131;BME280;51709;54.912;8.316;2022-10-22T01:32:34;100758.47;;;12.15;87.00
65131;BME280;51709;54.912;8.316;2022-10-22T01:38:00;100761.88;;;12.15;86.77
65131;BME280;51709;54.912;8.316;2022-10-22T01:43:24;100770.53;;;12.13;86.65
65131;BME280;51709;54.912;8.316;2022-10-22T01:49:16;100778.69;;;11.96;87.25
65131;BME280;51709;54.912;8.316;2022-10-22T01:54:54;100772.00;;;11.88;87.36
65131;BME280;51709;54.912;8.316;2022-10-22T02:00:19;100785.78;;;11.87;87.33
65131;BME280;51709;54.912;8.316;2022-10-22T02:05:45;100777.47;;;11.76;87.38
65131;BME280;51709;54.912;8.316;2022-10-22T02:11:11;100782.63;;;11.76;87.29
65131;BME280;51709;54.912;8.316;2022-10-22T02:16:38;100785.38;;;11.70;87.41
65131;BME280;51709;54.912;8.316;2022-10-22T02:22:01;100782.06;;;11.66;87.44
65131;BME280;51709;54.912;8.316;2022-10-22T02:27:26;100789.63;;;11.71;87.31
65131;BME280;51709;54.912;8.316;2022-10-22T02:33:03;100784.56;;;11.68;87.43
65131;BME280;51709;54.912;8.316;2022-10-22T02:38:28;100793.84;;;11.74;87.32
65131;BME280;51709;54.912;8.316;2022-10-22T02:43:53;100789.31;;;11.83;87.06
65131;BME280;51709;54.912;8.316;2022-10-22T02:49:14;100783.97;;;11.90;86.92
65131;BME280;51709;54.912;8.316;2022-10-22T02:54:35;100792.34;;;11.99;86.80
65131;BME280;51709;54.912;8.316;2022-10-22T02:59:55;100803.22;;;12.09;86.69
65131;BME280;51709;54.912;8.316;2022-10-22T03:05:17;100797.88;;;12.17;86.59
65131;BME280;51709;54.912;8.316;2022-10-22T03:10:37;100807.03;;;12.26;86.67
65131;BME280;51709;54.912;8.316;2022-10-22T03:15:58;100797.47;;;12.29;86.67
65131;BME280;51709;54.912;8.316;2022-10-22T03:21:31;100795.72;;;12.31;86.75
65131;BME280;51709;54.912;8.316;2022-10-22T03:26:53;100798.13;;;12.38;86.75
65131;BME280;51709;54.912;8.316;2022-10-22T03:32:14;100806.00;;;12.31;86.82
65131;BME280;51709;54.912;8.316;2022-10-22T03:37:35;100811.50;;;12.19;87.21
65131;BME280;51709;54.912;8.316;2022-10-22T03:42:57;100816.78;;;12.14;87.66
65131;BME280;51709;54.912;8.316;2022-10-22T03:48:18;100819.56;;;12.07;87.87
65131;BME280;51709;54.912;8.316;2022-10-22T03:53:39;100817.00;;;12.07;87.70
65131;BME280;51709;54.912;8.316;2022-10-22T03:59:00;100813.38;;;12.14;87.54
65131;BME280;51709;54.912;8.316;2022-10-22T04:04:21;100822.56;;;12.23;87.46
65131;BME280;51709;54.912;8.316;2022-10-22T04:09:42;100828.50;;;12.25;87.36
65131;BME280;51709;54.912;8.316;2022-10-22T04:15:04;100829.31;;;12.27;87.51
65131;BME280;51709;54.912;8.316;2022-10-22T04:20:24;100833.69;;;12.23;87.54
65131;BME280;51709;54.912;8.316;2022-10-22T04:25:47;100825.25;;;12.18;87.91
65131;BME280;51709;54.912;8.316;2022-10-22T04:31:16;100827.16;;;12.11;88.01
65131;BME280;51709;54.912;8.316;2022-10-22T04:36:37;100837.41;;;12.13;88.13
65131;BME280;51709;54.912;8.316;2022-10-22T04:41:58;100841.69;;;12.14;87.94
65131;BME280;51709;54.912;8.316;2022-10-22T04:47:18;100836.56;;;12.12;88.09
65131;BME280;51709;54.912;8.316;2022-10-22T04:52:39;100834.97;;;12.08;88.06
65131;BME280;51709;54.912;8.316;2022-10-22T04:58:00;100835.09;;;12.04;88.32
65131;BME280;51709;54.912;8.316;2022-10-22T05:03:20;100839.44;;;12.01;88.31
65131;BME280;51709;54.912;8.316;2022-10-22T05:08:41;100838.69;;;11.98;88.32
65131;BME280;51709;54.912;8.316;2022-10-22T05:14:04;100845.47;;;12.00;88.28
65131;BME280;51709;54.912;8.316;2022-10-22T05:19:27;100843.78;;;11.99;88.34
65131;BME280;51709;54.912;8.316;2022-10-22T05:24:49;100834.28;;;12.01;88.38
65131;BME280;51709;54.912;8.316;2022-10-22T05:30:10;100834.38;;;11.98;88.41
65131;BME280;51709;54.912;8.316;2022-10-22T05:35:31;100838.56;;;12.02;88.32
65131;BME280;51709;54.912;8.316;2022-10-22T05:41:03;100842.84;;;12.02;88.24
65131;BME280;51709;54.912;8.316;2022-10-22T05:46:27;100840.13;;;12.07;88.31
65131;BME280;51709;54.912;8.316;2022-10-22T05:51:48;100842.63;;;12.10;88.25
65131;BME280;51709;54.912;8.316;2022-10-22T05:57:09;100836.69;;;12.08;88.42
65131;BME280;51709;54.912;8.316;2022-10-22T06:02:30;100837.34;;;12.14;88.29
65131;BME280;51709;54.912;8.316;2022-10-22T06:07:51;100857.13;;;12.12;88.31
65131;BME280;51709;54.912;8.316;2022-10-22T06:13:12;100863.22;;;12.10;88.53
65131;BME280;51709;54.912;8.316;2022-10-22T06:18:33;100869.31;;;12.06;88.62
65131;BME280;51709;54.912;8.316;2022-10-22T06:23:58;100867.72;;;12.01;88.88
65131;BME280;51709;54.912;8.316;2022-10-22T06:29:19;100868.56;;;12.02;88.79
65131;BME280;51709;54.912;8.316;2022-10-22T06:34:39;100872.81;;;12.03;88.79
65131;BME280;51709;54.912;8.316;2022-10-22T06:40:00;100880.53;;;12.03;88.81
65131;BME280;51709;54.912;8.316;2022-10-22T06:45:20;100884.84;;;12.02;88.97
65131;BME280;51709;54.912;8.316;2022-10-22T06:50:40;100882.19;;;12.06;88.92
65131;BME280;51709;54.912;8.316;2022-10-22T06:56:08;100889.19;;;12.00;88.92
65131;BME280;51709;54.912;8.316;2022-10-22T07:01:31;100898.66;;;11.98;89.14
65131;BME280;51709;54.912;8.316;2022-10-22T07:06:56;100904.72;;;11.94;89.16
65131;BME280;51709;54.912;8.316;2022-10-22T07:12:16;100902.13;;;11.96;89.29
65131;BME280;51709;54.912;8.316;2022-10-22T07:17:37;100901.97;;;12.04;89.06
65131;BME280;51709;54.912;8.316;2022-10-22T07:23:02;100900.13;;;12.09;89.05
65131;BME280;51709;54.912;8.316;2022-10-22T07:28:23;100897.97;;;12.25;88.45
65131;BME280;51709;54.912;8.316;2022-10-22T07:33:44;100893.47;;;12.33;88.67
65131;BME280;51709;54.912;8.316;2022-10-22T07:39:05;100900.59;;;12.55;88.22
65131;BME280;51709;54.912;8.316;2022-10-22T07:44:26;100916.44;;;12.71;88.05
65131;BME280;51709;54.912;8.316;2022-10-22T07:49:46;100923.69;;;12.88;87.60
65131;BME280;51709;54.912;8.316;2022-10-22T07:55:07;100924.28;;;12.96;87.69
65131;BME280;51709;54.912;8.316;2022-10-22T08:00:27;100931.00;;;13.02;87.62
65131;BME280;51709;54.912;8.316;2022-10-22T08:05:48;100922.72;;;12.92;87.95
65131;BME280;51709;54.912;8.316;2022-10-22T08:11:10;100931.94;;;12.99;88.06
65131;BME280;51709;54.912;8.316;2022-10-22T08:16:31;100942.75;;;13.10;87.76
65131;BME280;51709;54.912;8.316;2022-10-22T08:21:52;100951.63;;;13.30;87.54
65131;BME280;51709;54.912;8.316;2022-10-22T08:27:13;100946.91;;;13.45;87.33
65131;BME280;51709;54.912;8.316;2022-10-22T08:32:33;100947.91;;;13.67;87.00
65131;BME280;51709;54.912;8.316;2022-10-22T08:37:53;100950.06;;;13.81;86.65
65131;BME280;51709;54.912;8.316;2022-10-22T08:43:37;100945.81;;;13.79;87.03
65131;BME280;51709;54.912;8.316;2022-10-22T08:49:03;100948.16;;;13.86;86.72
65131;BME280;51709;54.912;8.316;2022-10-22T08:54:37;100955.44;;;14.00;86.86
65131;BME280;51709;54.912;8.316;2022-10-22T09:11:38;100948.97;;;14.14;86.84
65131;BME280;51709;54.912;8.316;2022-10-22T09:17:24;100947.53;;;14.30;86.51
65131;BME280;51709;54.912;8.316;2022-10-22T09:23:13;100944.31;;;14.97;85.34
65131;BME280;51709;54.912;8.316;2022-10-22T09:28:37;100959.34;;;15.98;82.77
65131;BME280;51709;54.912;8.316;2022-10-22T09:33:58;100947.47;;;16.33;82.27
65131;BME280;51709;54.912;8.316;2022-10-22T09:46:55;100962.00;;;17.16;81.39
65131;BME280;51709;54.912;8.316;2022-10-22T09:52:26;100954.19;;;17.52;80.92
65131;BME280;51709;54.912;8.316;2022-10-22T09:57:56;100963.00;;;18.20;79.26
65131;BME280;51709;54.912;8.316;2022-10-22T10:03:20;100978.81;;;18.67;78.05
65131;BME280;51709;54.912;8.316;2022-10-22T10:08:41;100982.28;;;21.37;68.03
65131;BME280;51709;54.912;8.316;2022-10-22T10:14:10;100978.38;;;22.10;65.43
65131;BME280;51709;54.912;8.316;2022-10-22T10:19:38;100983.50;;;22.12;66.81
65131;BME280;51709;54.912;8.316;2022-10-22T10:30:39;100989.34;;;22.67;65.68
65131;BME280;51709;54.912;8.316;2022-10-22T10:36:25;100996.28;;;23.05;63.90
65131;BME280;51709;54.912;8.316;2022-10-22T10:53:00;100997.38;;;23.87;58.64
65131;BME280;51709;54.912;8.316;2022-10-22T10:58:33;100990.31;;;24.57;55.88
65131;BME280;51709;54.912;8.316;2022-10-22T11:10:01;101004.06;;;25.28;51.77
65131;BME280;51709;54.912;8.316;2022-10-22T11:15:36;100997.88;;;25.17;51.54
65131;BME280;51709;54.912;8.316;2022-10-22T11:21:15;101005.63;;;25.84;48.60
65131;BME280;51709;54.912;8.316;2022-10-22T11:32:25;101009.44;;;20.04;62.93
65131;BME280;51709;54.912;8.316;2022-10-22T11:37:47;101013.91;;;18.58;65.87
65131;BME280;51709;54.912;8.316;2022-10-22T11:43:10;101006.94;;;20.76;60.22
65131;BME280;51709;54.912;8.316;2022-10-22T11:49:00;101022.13;;;23.47;52.80
65131;BME280;51709;54.912;8.316;2022-10-22T11:54:38;101011.34;;;25.24;48.46
65131;BME280;51709;54.912;8.316;2022-10-22T12:17:07;101015.13;;;25.75;46.97
65131;BME280;51709;54.912;8.316;2022-10-22T12:22:31;101011.63;;;20.41;60.00
65131;BME280;51709;54.912;8.316;2022-10-22T12:27:54;101011.75;;;18.15;65.87
65131;BME280;51709;54.912;8.316;2022-10-22T12:33:21;101016.03;;;17.06;68.27
65131;BME280;51709;54.912;8.316;2022-10-22T12:38:44;101006.13;;;16.55;69.39
65131;BME280;51709;54.912;8.316;2022-10-22T12:44:06;101019.50;;;16.25;69.81
65131;BME280;51709;54.912;8.316;2022-10-22T12:49:36;101019.03;;;16.15;70.05
65131;BME280;51709;54.912;8.316;2022-10-22T12:54:58;101024.41;;;15.89;70.92
65131;BME280;51709;54.912;8.316;2022-10-22T13:00:27;101015.88;;;15.64;71.73
65131;BME280;51709;54.912;8.316;2022-10-22T13:05:51;101026.88;;;15.47;72.82
65131;BME280;51709;54.912;8.316;2022-10-22T13:11:12;101028.81;;;15.18;73.74
65131;BME280;51709;54.912;8.316;2022-10-22T13:16:33;101034.88;;;14.93;74.92
65131;BME280;51709;54.912;8.316;2022-10-22T13:21:59;101034.91;;;14.68;76.22
65131;BME280;51709;54.912;8.316;2022-10-22T13:27:19;101032.56;;;14.60;76.77
65131;BME280;51709;54.912;8.316;2022-10-22T13:32:40;101041.50;;;14.52;77.19
65131;BME280;51709;54.912;8.316;2022-10-22T13:38:02;101034.03;;;14.42;77.76
65131;BME280;51709;54.912;8.316;2022-10-22T13:43:24;101029.00;;;14.39;77.97
65131;BME280;51709;54.912;8.316;2022-10-22T13:48:53;101029.50;;;14.24;78.74
65131;BME280;51709;54.912;8.316;2022-10-22T13:54:20;101027.28;;;14.13;79.29
65131;BME280;51709;54.912;8.316;2022-10-22T13:59:42;101028.31;;;14.07;79.72
65131;BME280;51709;54.912;8.316;2022-10-22T14:05:03;101020.72;;;14.04;79.91
65131;BME280;51709;54.912;8.316;2022-10-22T14:10:27;101020.00;;;13.99;80.48
65131;BME280;51709;54.912;8.316;2022-10-22T14:15:49;101013.22;;;13.96;80.77
65131;BME280;51709;54.912;8.316;2022-10-22T14:21:15;101019.28;;;13.94;81.14
65131;BME280;51709;54.912;8.316;2022-10-22T14:26:36;101027.84;;;13.96;81.35
65131;BME280;51709;54.912;8.316;2022-10-22T14:31:56;101022.72;;;13.94;81.40
65131;BME280;51709;54.912;8.316;2022-10-22T14:37:19;101018.56;;;13.90;81.86
65131;BME280;51709;54.912;8.316;2022-10-22T14:42:41;101020.22;;;13.93;82.06
65131;BME280;51709;54.912;8.316;2022-10-22T14:48:03;101021.03;;;13.93;82.10
65131;BME280;51709;54.912;8.316;2022-10-22T14:53:23;101027.25;;;13.87;82.94
65131;BME280;51709;54.912;8.316;2022-10-22T14:58:45;101025.75;;;13.80;83.18
65131;BME280;51709;54.912;8.316;2022-10-22T15:04:06;101030.28;;;13.72;83.88
65131;BME280;51709;54.912;8.316;2022-10-22T15:09:26;101040.81;;;13.66;84.28
65131;BME280;51709;54.912;8.316;2022-10-22T15:14:47;101034.78;;;13.65;84.23
65131;BME280;51709;54.912;8.316;2022-10-22T15:20:08;101043.41;;;13.64;84.58
65131;BME280;51709;54.912;8.316;2022-10-22T15:25:29;101052.84;;;13.65;84.82
65131;BME280;51709;54.912;8.316;2022-10-22T15:30:58;101043.47;;;13.63;85.14
65131;BME280;51709;54.912;8.316;2022-10-22T15:36:18;101064.16;;;13.61;85.30
65131;BME280;51709;54.912;8.316;2022-10-22T15:41:39;101054.69;;;13.62;85.27
65131;BME280;51709;54.912;8.316;2022-10-22T15:47:02;101061.47;;;13.64;85.38
65131;BME280;51709;54.912;8.316;2022-10-22T15:52:24;101064.03;;;13.66;85.39
65131;BME280;51709;54.912;8.316;2022-10-22T15:57:45;101072.44;;;13.71;85.28
65131;BME280;51709;54.912;8.316;2022-10-22T16:03:05;101080.09;;;13.74;85.45
65131;BME280;51709;54.912;8.316;2022-10-22T16:08:27;101078.38;;;13.75;85.37
65131;BME280;51709;54.912;8.316;2022-10-22T16:13:51;101086.13;;;13.75;85.35
65131;BME280;51709;54.912;8.316;2022-10-22T16:19:14;101088.56;;;13.79;85.46
65131;BME280;51709;54.912;8.316;2022-10-22T16:24:36;101087.66;;;13.80;85.22
65131;BME280;51709;54.912;8.316;2022-10-22T16:30:00;101096.97;;;13.86;85.40
65131;BME280;51709;54.912;8.316;2022-10-22T16:35:21;101107.22;;;13.87;85.18
65131;BME280;51709;54.912;8.316;2022-10-22T16:40:41;101110.63;;;13.88;85.27
65131;BME280;51709;54.912;8.316;2022-10-22T16:46:02;101114.75;;;13.94;85.07
65131;BME280;51709;54.912;8.316;2022-10-22T16:51:25;101119.00;;;13.96;85.16
65131;BME280;51709;54.912;8.316;2022-10-22T16:56:45;101124.16;;;13.96;85.47
65131;BME280;51709;54.912;8.316;2022-10-22T17:02:10;101126.75;;;13.96;85.39
65131;BME280;51709;54.912;8.316;2022-10-22T17:07:31;101143.84;;;13.99;85.33
65131;BME280;51709;54.912;8.316;2022-10-22T17:12:52;101150.19;;;13.89;85.46
65131;BME280;51709;54.912;8.316;2022-10-22T17:18:13;101158.09;;;13.82;85.79
65131;BME280;51709;54.912;8.316;2022-10-22T17:23:34;101159.09;;;13.78;85.74
65131;BME280;51709;54.912;8.316;2022-10-22T17:28:54;101161.94;;;13.69;86.01
65131;BME280;51709;54.912;8.316;2022-10-22T17:34:16;101163.81;;;13.64;85.95
65131;BME280;51709;54.912;8.316;2022-10-22T17:39:38;101163.13;;;13.57;86.22
65131;BME280;51709;54.912;8.316;2022-10-22T17:44:59;101166.56;;;13.58;86.04
65131;BME280;51709;54.912;8.316;2022-10-22T17:50:20;101175.91;;;13.62;85.95
65131;BME280;51709;54.912;8.316;2022-10-22T17:55:40;101180.16;;;13.63;85.76
65131;BME280;51709;54.912;8.316;2022-10-22T18:01:01;101188.72;;;13.65;85.84
65131;BME280;51709;54.912;8.316;2022-10-22T18:06:22;101198.84;;;13.71;85.81
65131;BME280;51709;54.912;8.316;2022-10-22T18:11:43;101197.03;;;13.75;85.56
65131;BME280;51709;54.912;8.316;2022-10-22T18:17:04;101204.72;;;13.76;85.51
65131;BME280;51709;54.912;8.316;2022-10-22T18:22:24;101205.47;;;13.80;85.42
65131;BME280;51709;54.912;8.316;2022-10-22T18:27:46;101210.59;;;13.81;85.45
65131;BME280;51709;54.912;8.316;2022-10-22T18:33:09;101197.72;;;13.80;85.48
65131;BME280;51709;54.912;8.316;2022-10-22T18:38:31;101199.28;;;13.85;85.49
65131;BME280;51709;54.912;8.316;2022-10-22T18:44:00;101199.47;;;13.79;85.40
65131;BME280;51709;54.912;8.316;2022-10-22T18:49:24;101217.50;;;13.81;85.44
65131;BME280;51709;54.912;8.316;2022-10-22T18:54:45;101217.44;;;13.82;85.54
65131;BME280;51709;54.912;8.316;2022-10-22T19:00:06;101210.59;;;13.81;85.35
65131;BME280;51709;54.912;8.316;2022-10-22T19:05:27;101219.09;;;13.85;85.44
65131;BME280;51709;54.912;8.316;2022-10-22T19:10:47;101225.16;;;13.82;85.65
65131;BME280;51709;54.912;8.316;2022-10-22T19:16:14;101225.31;;;13.78;85.65
65131;BME280;51709;54.912;8.316;2022-10-22T19:21:37;101228.66;;;13.81;85.68
65131;BME280;51709;54.912;8.316;2022-10-22T19:26:58;101230.31;;;13.84;85.51
65131;BME280;51709;54.912;8.316;2022-10-22T19:32:19;101241.47;;;13.84;85.75
65131;BME280;51709;54.912;8.316;2022-10-22T19:37:40;101240.63;;;13.84;85.71
65131;BME280;51709;54.912;8.316;2022-10-22T19:43:07;101254.34;;;13.86;85.63
65131;BME280;51709;54.912;8.316;2022-10-22T19:48:28;101258.56;;;13.89;85.74
65131;BME280;51709;54.912;8.316;2022-10-22T19:53:49;101265.34;;;13.91;85.65
65131;BME280;51709;54.912;8.316;2022-10-22T19:59:10;101262.91;;;13.86;85.70
65131;BME280;51709;54.912;8.316;2022-10-22T20:04:31;101268.81;;;13.90;85.81
65131;BME280;51709;54.912;8.316;2022-10-22T20:09:52;101281.56;;;13.96;85.81
65131;BME280;51709;54.912;8.316;2022-10-22T20:15:12;101288.44;;;13.96;85.83
65131;BME280;51709;54.912;8.316;2022-10-22T20:20:36;101279.94;;;13.92;85.99
65131;BME280;51709;54.912;8.316;2022-10-22T20:25:57;101286.88;;;13.90;86.03
65131;BME280;51709;54.912;8.316;2022-10-22T20:31:19;101291.53;;;13.77;86.28
65131;BME280;51709;54.912;8.316;2022-10-22T20:36:40;101295.34;;;13.64;86.73
65131;BME280;51709;54.912;8.316;2022-10-22T20:42:01;101291.31;;;13.53;87.04
65131;BME280;51709;54.912;8.316;2022-10-22T20:47:21;101306.97;;;13.46;87.24
65131;BME280;51709;54.912;8.316;2022-10-22T20:52:58;101324.25;;;13.42;87.15
65131;BME280;51709;54.912;8.316;2022-10-22T20:58:19;101322.63;;;13.39;86.99
65131;BME280;51709;54.912;8.316;2022-10-22T21:03:50;101324.47;;;13.33;87.26
65131;BME280;51709;54.912;8.316;2022-10-22T21:09:13;101327.22;;;13.25;87.36
65131;BME280;51709;54.912;8.316;2022-10-22T21:14:34;101329.06;;;13.20;87.45
65131;BME280;51709;54.912;8.316;2022-10-22T21:19:54;101322.31;;;13.16;87.43
65131;BME280;51709;54.912;8.316;2022-10-22T21:25:16;101319.84;;;13.09;87.66
65131;BME280;51709;54.912;8.316;2022-10-22T21:30:43;101312.31;;;13.02;87.47
65131;BME280;51709;54.912;8.316;2022-10-22T21:36:05;101314.97;;;12.99;87.53
65131;BME280;51709;54.912;8.316;2022-10-22T21:41:26;101323.69;;;12.93;87.75
65131;BME280;51709;54.912;8.316;2022-10-22T21:46:46;101328.97;;;12.87;87.68
65131;BME280;51709;54.912;8.316;2022-10-22T21:52:07;101336.75;;;12.84;87.63
65131;BME280;51709;54.912;8.316;2022-10-22T21:57:28;101332.47;;;12.83;87.67
65131;BME280;51709;54.912;8.316;2022-10-22T22:02:49;101332.53;;;12.81;87.55
65131;BME280;51709;54.912;8.316;2022-10-22T22:08:10;101330.00;;;12.79;87.55
65131;BME280;51709;54.912;8.316;2022-10-22T22:13:31;101320.63;;;12.75;87.66
65131;BME280;51709;54.912;8.316;2022-10-22T22:18:53;101320.59;;;12.77;87.75
65131;BME280;51709;54.912;8.316;2022-10-22T22:24:15;101326.63;;;12.76;87.44
65131;BME280;51709;54.912;8.316;2022-10-22T22:29:36;101320.63;;;12.75;87.61
65131;BME280;51709;54.912;8.316;2022-10-22T22:34:56;101319.81;;;12.73;87.56
65131;BME280;51709;54.912;8.316;2022-10-22T22:40:18;101316.53;;;12.68;87.51
65131;BME280;51709;54.912;8.316;2022-10-22T22:45:38;101320.97;;;12.61;87.62
65131;BME280;51709;54.912;8.316;2022-10-22T22:51:01;101313.34;;;12.55;87.73
65131;BME280;51709;54.912;8.316;2022-10-22T22:56:24;101302.22;;;12.53;87.67
65131;BME280;51709;54.912;8.316;2022-10-22T23:01:46;101306.59;;;12.49;87.54
65131;BME280;51709;54.912;8.316;2022-10-22T23:07:07;101310.94;;;12.47;87.73
65131;BME280;51709;54.912;8.316;2022-10-22T23:12:28;101313.59;;;12.44;87.62
65131;BME280;51709;54.912;8.316;2022-10-22T23:17:48;101315.34;;;12.41;87.53
65131;BME280;51709;54.912;8.316;2022-10-22T23:23:09;101314.63;;;12.36;87.37
65131;BME280;51709;54.912;8.316;2022-10-22T23:28:30;101318.13;;;12.33;87.30
65131;BME280;51709;54.912;8.316;2022-10-22T23:33:50;101307.09;;;12.26;87.49
65131;BME280;51709;54.912;8.316;2022-10-22T23:39:14;101305.47;;;12.22;87.56
65131;BME280;51709;54.912;8.316;2022-10-22T23:44:35;101314.06;;;12.21;87.45
65131;BME280;51709;54.912;8.316;2022-10-22T23:49:55;101323.53;;;12.19;87.35
65131;BME280;51709;54.912;8.316;2022-10-22T23:55:17;101327.03;;;12.16;87.23
